createdAt,value
2023-01-28T00:01:43.779Z,36.08
2023-01-28T00:04:11.722Z,35.91
2023-01-28T00:06:42.005Z,36.31
2023-01-28T00:09:14.879Z,36.19
2023-01-28T00:11:42.743Z,36.30
2023-01-28T00:14:10.594Z,36.30
2023-01-28T00:16:38.191Z,36.10
2023-01-28T00:19:07.699Z,36.04
2023-01-28T00:21:39.778Z,36.12
2023-01-28T00:24:15.875Z,35.94
2023-01-28T00:26:45.999Z,36.05
2023-01-28T00:29:13.359Z,35.86
2023-01-28T00:31:41.474Z,36.21
2023-01-28T00:34:08.882Z,36.17
2023-01-28T00:36:39.735Z,36.36
2023-01-28T00:39:09.536Z,36.30
2023-01-28T00:41:37.584Z,36.37
2023-01-28T00:44:04.937Z,36.41
2023-01-28T00:46:32.246Z,36.23
2023-01-28T00:48:59.526Z,36.32
2023-01-28T00:53:54.172Z,36.00
2023-01-28T00:56:21.519Z,36.03
2023-01-28T00:58:48.863Z,36.09
2023-01-28T01:01:16.208Z,36.04
2023-01-28T01:03:43.599Z,36.21
2023-01-28T01:06:10.913Z,36.32
2023-01-28T01:08:47.625Z,36.90
2023-01-28T01:11:26.110Z,37.04
2023-01-28T01:13:54.947Z,36.33
2023-01-28T01:16:22.299Z,36.36
2023-01-28T01:18:49.628Z,36.28
2023-01-28T01:21:17.758Z,36.69
2023-01-28T01:23:45.062Z,36.48
2023-01-28T01:26:12.376Z,37.01
2023-01-28T01:28:39.675Z,36.37
2023-01-28T01:31:07.126Z,36.68
2023-01-28T01:33:34.630Z,36.58
2023-01-28T01:36:02.137Z,36.59
2023-01-28T01:38:29.752Z,36.42
2023-01-28T01:40:58.089Z,36.42
2023-01-28T01:43:25.601Z,36.32
2023-01-28T01:45:53.485Z,36.46
2023-01-28T01:48:20.901Z,36.16
2023-01-28T01:50:48.200Z,36.30
2023-01-28T01:55:42.831Z,36.34
2023-01-28T01:58:10.216Z,35.93
2023-01-28T02:00:37.513Z,36.51
2023-01-28T02:03:04.842Z,36.11
2023-01-28T02:05:32.122Z,36.13
2023-01-28T02:08:18.196Z,36.05
2023-01-28T02:10:45.359Z,36.30
2023-01-28T02:13:12.717Z,36.23
2023-01-28T02:15:40.108Z,36.05
2023-01-28T02:18:07.424Z,36.16
2023-01-28T02:20:34.748Z,36.12
2023-01-28T02:23:02.006Z,36.17
2023-01-28T02:25:29.272Z,36.24
2023-01-28T02:27:56.646Z,35.97
2023-01-28T02:30:23.911Z,36.04
2023-01-28T02:32:51.189Z,36.38
2023-01-28T02:35:18.513Z,36.14
2023-01-28T02:37:45.894Z,35.86
2023-01-28T02:40:13.237Z,36.08
2023-01-28T02:42:40.746Z,35.96
2023-01-28T02:45:08.069Z,36.02
2023-01-28T02:47:53.997Z,36.30
2023-01-28T02:50:21.261Z,36.12
2023-01-28T02:53:08.261Z,36.45
2023-01-28T02:55:35.727Z,36.23
2023-01-28T02:58:03.124Z,36.66
2023-01-28T03:00:30.530Z,36.27
2023-01-28T03:02:57.781Z,36.40
2023-01-28T03:05:25.203Z,36.17
2023-01-28T03:07:52.594Z,36.23
2023-01-28T03:10:20.086Z,36.18
2023-01-28T03:13:06.096Z,36.17
2023-01-28T03:15:52.216Z,36.14
2023-01-28T03:18:38.348Z,36.20
2023-01-28T03:21:24.499Z,36.42
2023-01-28T03:24:10.429Z,36.25
2023-01-28T03:26:56.628Z,36.39
2023-01-28T03:29:42.722Z,36.24
2023-01-28T03:32:28.609Z,36.44
2023-01-28T03:35:14.794Z,36.19
2023-01-28T03:37:42.261Z,36.10
2023-01-28T03:40:09.584Z,36.29
2023-01-28T03:42:36.857Z,36.56
2023-01-28T03:45:05.483Z,36.63
2023-01-28T03:50:00.482Z,36.34
2023-01-28T03:52:27.901Z,36.19
2023-01-28T03:54:55.243Z,36.33
2023-01-28T03:57:22.603Z,36.43
2023-01-28T03:59:49.955Z,36.36
2023-01-28T04:02:17.238Z,36.22
2023-01-28T04:04:44.491Z,36.08
2023-01-28T04:07:11.749Z,36.22
2023-01-28T04:09:39.064Z,36.08
2023-01-28T04:12:06.367Z,36.05
2023-01-28T04:14:33.685Z,36.33
2023-01-28T04:17:01.431Z,36.15
2023-01-28T04:19:28.876Z,36.17
2023-01-28T04:21:56.827Z,36.00
2023-01-28T04:24:24.565Z,35.98
2023-01-28T04:26:51.926Z,36.18
2023-01-28T04:29:19.226Z,36.08
2023-01-28T04:31:46.581Z,36.13
2023-01-28T04:34:14.005Z,36.20
2023-01-28T04:36:41.226Z,36.02
2023-01-28T04:39:08.573Z,35.98
2023-01-28T04:41:35.995Z,36.05
2023-01-28T04:44:03.285Z,36.11
2023-01-28T04:46:30.672Z,36.16
2023-01-28T04:48:57.983Z,35.95
2023-01-28T04:51:25.299Z,36.00
2023-01-28T04:53:52.581Z,36.16
2023-01-28T04:56:19.904Z,35.87
2023-01-28T04:58:47.433Z,35.98
2023-01-28T05:01:16.920Z,36.19
2023-01-28T05:03:44.287Z,35.97
2023-01-28T05:06:11.552Z,36.16
2023-01-28T05:08:38.930Z,35.98
2023-01-28T05:11:06.272Z,36.02
2023-01-28T05:13:33.536Z,36.18
2023-01-28T05:16:00.923Z,35.87
2023-01-28T05:20:55.487Z,36.09
2023-01-28T05:23:22.783Z,35.78
2023-01-28T05:25:50.136Z,36.18
2023-01-28T05:28:17.515Z,35.90
2023-01-28T05:30:44.885Z,36.05
2023-01-28T05:33:12.287Z,35.84
2023-01-28T05:35:39.570Z,36.23
2023-01-28T05:38:06.902Z,36.05
2023-01-28T05:40:34.207Z,35.83
2023-01-28T05:43:01.465Z,35.97
2023-01-28T05:47:55.929Z,35.90
2023-01-28T05:50:23.259Z,36.20
2023-01-28T05:52:50.664Z,36.06
2023-01-28T05:55:20.661Z,36.16
2023-01-28T05:57:48.152Z,36.10
2023-01-28T06:00:16.329Z,35.95
2023-01-28T06:02:44.010Z,36.15
2023-01-28T06:05:11.413Z,36.10
2023-01-28T06:07:38.901Z,36.14
2023-01-28T06:10:06.278Z,36.11
2023-01-28T06:12:33.618Z,36.00
2023-01-28T06:15:00.915Z,36.19
2023-01-28T06:19:55.516Z,36.13
2023-01-28T06:22:22.804Z,36.00
2023-01-28T06:24:50.097Z,36.29
2023-01-28T06:27:17.353Z,36.32
2023-01-28T06:29:44.700Z,36.11
2023-01-28T06:32:12.120Z,36.19
2023-01-28T06:34:39.471Z,36.18
2023-01-28T06:37:06.867Z,36.34
2023-01-28T06:39:34.342Z,36.11
2023-01-28T06:42:01.615Z,36.26
2023-01-28T06:44:29.007Z,36.33
2023-01-28T06:46:56.320Z,36.30
2023-01-28T06:49:23.619Z,36.35
2023-01-28T06:51:50.867Z,36.00
2023-01-28T06:54:18.206Z,36.27
2023-01-28T06:56:45.531Z,36.14
2023-01-28T06:59:12.818Z,36.23
2023-01-28T07:01:40.253Z,36.12
2023-01-28T07:04:07.660Z,36.26
2023-01-28T07:06:35.056Z,36.18
2023-01-28T07:09:02.418Z,36.25
2023-01-28T07:11:29.778Z,36.24
2023-01-28T07:13:57.037Z,36.34
2023-01-28T07:16:24.312Z,36.20
2023-01-28T07:18:51.654Z,36.36
2023-01-28T07:21:19.107Z,36.01
2023-01-28T07:23:46.709Z,36.29
2023-01-28T07:26:15.563Z,36.03
2023-01-28T07:28:42.886Z,36.20
2023-01-28T07:31:10.458Z,36.45
2023-01-28T07:33:37.826Z,36.34
2023-01-28T07:36:05.161Z,36.42
2023-01-28T07:38:32.423Z,36.29
2023-01-28T07:40:59.756Z,36.35
2023-01-28T07:45:54.347Z,36.26
2023-01-28T07:48:21.743Z,36.01
2023-01-28T07:50:51.228Z,35.87
2023-01-28T07:53:19.725Z,35.98
2023-01-28T07:55:47.243Z,35.79
2023-01-28T07:58:14.592Z,35.98
2023-01-28T08:00:41.945Z,35.80
2023-01-28T08:03:09.205Z,35.84
2023-01-28T08:05:36.508Z,35.80
2023-01-28T08:08:03.983Z,35.95
2023-01-28T08:10:31.306Z,35.67
2023-01-28T08:13:43.731Z,35.75
2023-01-28T08:18:50.980Z,35.72
2023-01-28T08:23:45.470Z,35.78
2023-01-28T08:28:39.977Z,35.58
2023-01-28T08:31:07.432Z,35.61
2023-01-28T08:33:34.844Z,35.55
2023-01-28T08:36:02.108Z,35.55
2023-01-28T08:38:29.420Z,35.72
2023-01-28T08:43:23.912Z,35.54
2023-01-28T08:45:51.214Z,35.33
2023-01-28T08:50:45.811Z,35.57
2023-01-28T08:58:07.688Z,35.52
2023-01-28T09:03:04.597Z,35.36
2023-01-28T09:05:34.129Z,35.42
2023-01-28T09:08:01.456Z,35.50
2023-01-28T09:10:28.804Z,35.53
2023-01-28T09:12:56.170Z,35.42
2023-01-28T09:15:23.518Z,35.32
2023-01-28T09:17:50.907Z,35.28
2023-01-28T09:20:18.458Z,35.58
2023-01-28T09:22:45.827Z,35.55
2023-01-28T09:25:15.547Z,35.31
2023-01-28T09:27:43.117Z,35.51
2023-01-28T09:30:10.643Z,35.19
2023-01-28T09:35:07.717Z,35.30
2023-01-28T09:37:35.077Z,35.44
2023-01-28T09:40:02.496Z,35.30
2023-01-28T09:42:30.027Z,35.29
2023-01-28T09:44:57.407Z,35.22
2023-01-28T09:47:24.766Z,35.30
2023-01-28T09:49:52.099Z,35.38
2023-01-28T09:52:19.476Z,35.22
2023-01-28T09:54:46.844Z,35.01
2023-01-28T09:57:14.128Z,35.28
2023-01-28T09:59:41.516Z,35.22
2023-01-28T10:02:08.778Z,35.21
2023-01-28T10:04:36.154Z,35.00
2023-01-28T10:07:03.454Z,35.30
2023-01-28T10:09:30.767Z,35.17
2023-01-28T10:11:58.082Z,35.20
2023-01-28T10:14:25.418Z,35.24
2023-01-28T10:16:52.731Z,34.93
2023-01-28T10:19:20.248Z,35.08
2023-01-28T10:21:47.519Z,35.01
2023-01-28T10:24:14.860Z,34.96
2023-01-28T10:26:42.338Z,34.92
2023-01-28T10:29:09.640Z,34.93
2023-01-28T10:31:37.074Z,35.10
2023-01-28T10:34:04.651Z,35.01
2023-01-28T10:36:34.096Z,34.84
2023-01-28T10:39:01.352Z,34.93
2023-01-28T10:43:55.990Z,34.84
2023-01-28T10:46:23.381Z,35.01
2023-01-28T10:48:50.747Z,35.11
2023-01-28T10:51:20.076Z,35.11
2023-01-28T10:53:47.411Z,34.87
2023-01-28T10:56:14.749Z,34.98
2023-01-28T10:58:42.069Z,34.73
2023-01-28T11:01:09.552Z,34.89
2023-01-28T11:06:04.191Z,34.90
2023-01-28T11:08:31.592Z,34.71
2023-01-28T11:10:58.915Z,34.94
2023-01-28T11:15:53.463Z,34.79
2023-01-28T11:18:20.770Z,34.80
2023-01-28T11:20:48.090Z,34.89
2023-01-28T11:26:02.755Z,34.57
2023-01-28T11:28:30.054Z,34.67
2023-01-28T11:30:57.508Z,34.68
2023-01-28T11:35:52.581Z,34.87
2023-01-28T11:38:20.097Z,34.62
2023-01-28T11:40:47.453Z,34.62
2023-01-28T11:43:14.976Z,34.55
2023-01-28T11:45:42.470Z,34.48
2023-01-28T11:48:11.319Z,34.50
2023-01-28T11:50:38.676Z,34.76
2023-01-28T11:53:07.423Z,34.70
2023-01-28T11:55:35.029Z,34.46
2023-01-28T11:58:02.358Z,34.54
2023-01-28T12:00:31.515Z,34.52
2023-01-28T12:02:58.926Z,34.43
2023-01-28T12:05:26.346Z,34.57
2023-01-28T12:07:53.715Z,34.54
2023-01-28T12:10:21.088Z,34.55
2023-01-28T12:12:48.461Z,34.55
2023-01-28T12:15:15.780Z,34.54
2023-01-28T12:17:43.155Z,34.34
2023-01-28T12:20:13.287Z,34.51
2023-01-28T12:22:40.768Z,34.61
2023-01-28T12:25:08.199Z,34.54
2023-01-28T12:30:03.542Z,34.54
2023-01-28T12:32:31.642Z,34.18
2023-01-28T12:34:59.057Z,34.20
2023-01-28T12:37:27.259Z,34.40
2023-01-28T12:39:54.709Z,34.45
2023-01-28T12:42:22.016Z,34.44
2023-01-28T12:44:49.485Z,34.25
2023-01-28T12:52:11.453Z,34.51
2023-01-28T12:54:38.930Z,34.55
2023-01-28T12:57:07.651Z,34.34
2023-01-28T12:59:35.039Z,34.38
2023-01-28T13:02:02.504Z,34.28
2023-01-28T13:06:57.578Z,33.97
2023-01-28T13:09:25.176Z,34.06
2023-01-28T13:11:52.609Z,34.09
2023-01-28T13:14:20.027Z,34.00
2023-01-28T13:16:47.578Z,34.06
2023-01-28T13:19:14.994Z,33.95
2023-01-28T13:21:49.072Z,34.11
2023-01-28T13:24:17.096Z,33.98
2023-01-28T13:26:44.882Z,34.10
2023-01-28T13:29:12.302Z,34.23
2023-01-28T13:31:39.800Z,34.01
2023-01-28T13:34:07.253Z,34.08
2023-01-28T13:36:34.864Z,33.83
2023-01-28T13:39:02.855Z,34.21
2023-01-28T13:41:32.442Z,33.99
2023-01-28T13:44:01.315Z,34.07
2023-01-28T13:46:28.773Z,34.12
2023-01-28T13:48:56.130Z,34.19
2023-01-28T13:51:23.481Z,34.31
2023-01-28T13:53:50.833Z,33.96
2023-01-28T13:59:56.441Z,33.98
2023-01-28T14:02:24.006Z,34.13
2023-01-28T14:04:51.541Z,33.84
2023-01-28T14:07:22.018Z,34.15
2023-01-28T14:09:49.831Z,33.95
2023-01-28T14:12:20.038Z,33.82
2023-01-28T14:17:14.521Z,33.91
2023-01-28T14:19:41.947Z,33.96
2023-01-28T14:22:09.251Z,33.76
2023-01-28T14:27:03.951Z,34.06
2023-01-28T14:29:31.389Z,33.93
2023-01-28T14:31:58.952Z,33.73
2023-01-28T14:34:26.417Z,33.70
2023-01-28T14:36:53.966Z,33.81
2023-01-28T14:39:21.442Z,33.76
2023-01-28T14:41:51.737Z,34.02
2023-01-28T14:44:19.222Z,33.90
2023-01-28T14:46:51.971Z,33.99
2023-01-28T14:49:19.342Z,33.67
2023-01-28T14:51:46.751Z,34.02
2023-01-28T14:54:14.315Z,33.76
2023-01-28T14:59:09.214Z,33.93
2023-01-28T15:04:20.879Z,34.11
2023-01-28T15:06:51.461Z,35.23
2023-01-28T15:09:19.206Z,35.03
2023-01-28T15:11:49.886Z,37.26
2023-01-28T15:14:20.679Z,36.56
2023-01-28T15:16:54.372Z,37.20
2023-01-28T15:28:40.299Z,37.26
2023-01-28T15:31:10.342Z,37.37
2023-01-28T15:37:44.346Z,38.92
2023-01-28T15:40:26.568Z,38.65
2023-01-28T15:43:02.341Z,38.94
2023-01-28T15:45:29.998Z,38.22
2023-01-28T15:48:15.861Z,37.53
2023-01-28T15:50:47.038Z,36.95
2023-01-28T15:53:17.627Z,36.85
2023-01-28T15:58:12.739Z,37.37
2023-01-28T16:00:40.474Z,36.94
2023-01-28T16:03:14.642Z,36.71
2023-01-28T16:05:47.955Z,36.00
2023-01-28T16:08:15.550Z,36.20
2023-01-28T16:10:43.033Z,36.18
2023-01-28T16:13:21.037Z,36.28
2023-01-28T16:15:56.055Z,35.88
2023-01-28T16:18:23.772Z,36.05
2023-01-28T16:20:51.543Z,35.61
2023-01-28T16:23:18.957Z,35.69
2023-01-28T16:25:46.440Z,35.32
2023-01-28T16:28:13.795Z,35.57
2023-01-28T16:30:41.180Z,35.30
2023-01-28T16:33:08.995Z,35.16
2023-01-28T16:38:03.672Z,35.20
2023-01-28T16:40:32.318Z,35.20
2023-01-28T16:42:59.687Z,34.87
2023-01-28T16:47:54.397Z,34.85
2023-01-28T16:52:53.866Z,34.77
2023-01-28T16:55:24.756Z,34.75
2023-01-28T16:58:01.319Z,34.73
2023-01-28T17:00:37.548Z,34.80
2023-01-28T17:03:12.798Z,34.74
2023-01-28T17:05:55.380Z,34.74
2023-01-28T17:08:37.331Z,34.57
2023-01-28T17:11:07.354Z,34.70
2023-01-28T17:13:35.351Z,34.67
2023-01-28T17:16:06.640Z,34.59
2023-01-28T17:18:37.320Z,34.69
2023-01-28T17:21:11.003Z,34.40
2023-01-28T17:26:07.335Z,34.56
2023-01-28T17:31:19.280Z,34.40
2023-01-28T17:33:47.145Z,34.13
2023-01-28T17:36:15.015Z,34.15
2023-01-28T17:41:15.479Z,34.21
2023-01-28T17:46:13.474Z,34.00
2023-01-28T17:51:25.608Z,33.79
2023-01-28T17:53:53.366Z,33.83
2023-01-28T17:56:23.479Z,33.99
2023-01-28T17:58:51.244Z,33.71
2023-01-28T18:01:18.901Z,33.91
2023-01-28T18:03:52.033Z,33.61
2023-01-28T18:06:27.436Z,33.63
2023-01-28T18:08:57.629Z,33.57
2023-01-28T18:11:25.777Z,33.71
2023-01-28T18:13:53.375Z,33.57
2023-01-28T18:16:21.062Z,33.49
2023-01-28T18:18:50.890Z,33.46
2023-01-28T18:21:18.508Z,33.39
2023-01-28T18:23:48.312Z,33.57
2023-01-28T18:26:16.046Z,33.59
2023-01-28T18:31:20.718Z,33.44
2023-01-28T18:36:16.042Z,33.25
2023-01-28T18:39:01.305Z,33.16
2023-01-28T18:41:31.870Z,33.19
2023-01-28T18:44:01.870Z,33.26
2023-01-28T18:46:29.431Z,33.22
2023-01-28T18:48:57.585Z,33.26
2023-01-28T18:51:30.321Z,32.88
2023-01-28T18:53:58.170Z,33.00
2023-01-28T18:56:25.894Z,33.04
2023-01-28T18:58:53.449Z,32.93
2023-01-28T19:01:24.240Z,33.20
2023-01-28T19:03:52.111Z,33.14
2023-01-28T19:06:20.038Z,33.13
2023-01-28T19:08:47.728Z,33.19
2023-01-28T19:11:17.814Z,33.00
2023-01-28T19:13:45.133Z,32.86
2023-01-28T19:16:12.610Z,32.67
2023-01-28T19:18:40.789Z,32.75
2023-01-28T19:21:08.133Z,32.69
2023-01-28T19:23:49.261Z,33.20
2023-01-28T19:26:21.284Z,32.84
2023-01-28T19:28:49.564Z,32.65
2023-01-28T19:31:19.024Z,32.76
2023-01-28T19:33:46.499Z,32.49
2023-01-28T19:36:14.008Z,32.62
2023-01-28T19:38:41.427Z,32.45
2023-01-28T19:41:08.814Z,32.70
2023-01-28T19:43:36.159Z,32.51
2023-01-28T19:46:03.783Z,32.40
2023-01-28T19:48:31.166Z,32.30
2023-01-28T19:50:58.514Z,32.62
2023-01-28T19:53:25.948Z,32.41
2023-01-28T19:58:20.691Z,32.70
2023-01-28T20:00:48.127Z,32.48
2023-01-28T20:03:15.723Z,32.28
2023-01-28T20:08:10.674Z,32.26
2023-01-28T20:10:38.125Z,32.51
2023-01-28T20:13:08.219Z,32.70
2023-01-28T20:18:30.581Z,32.49
2023-01-28T20:20:58.035Z,32.55
2023-01-28T20:23:25.464Z,32.72
2023-01-28T20:25:54.830Z,32.57
2023-01-28T20:28:22.590Z,32.33
2023-01-28T20:31:07.825Z,32.65
2023-01-28T20:33:35.908Z,32.52
2023-01-28T20:36:03.533Z,32.37
2023-01-28T20:38:31.176Z,32.44
2023-01-28T20:40:58.662Z,32.38
2023-01-28T20:43:27.861Z,32.35
2023-01-28T20:45:57.364Z,32.87
2023-01-28T20:48:24.747Z,32.94
2023-01-28T20:50:52.103Z,33.16
2023-01-28T20:53:19.565Z,33.36
2023-01-28T20:58:14.430Z,33.08
2023-01-28T21:03:09.576Z,33.14
2023-01-28T21:08:11.975Z,33.48
2023-01-28T21:13:08.241Z,33.58
2023-01-28T21:15:35.609Z,33.14
2023-01-28T21:18:05.780Z,33.61
2023-01-28T21:20:33.108Z,34.41
2023-01-28T21:23:03.083Z,34.19
2023-01-28T21:27:57.896Z,34.01
2023-01-28T21:30:25.342Z,33.86
2023-01-28T21:35:21.486Z,33.61
2023-01-28T21:40:23.945Z,33.94
2023-01-28T21:42:54.915Z,33.83
2023-01-28T21:45:22.455Z,33.82
2023-01-28T21:51:01.746Z,33.90
2023-01-28T21:53:29.172Z,34.29
2023-01-28T21:55:56.970Z,34.31
2023-01-28T22:01:56.429Z,33.26
2023-01-28T22:04:25.751Z,32.79
2023-01-28T22:06:53.217Z,32.43
2023-01-28T22:09:20.586Z,32.54
2023-01-28T22:11:47.971Z,32.79
2023-01-28T22:14:16.534Z,32.62
2023-01-28T22:19:11.616Z,32.85
2023-01-28T22:21:47.561Z,32.64
2023-01-28T22:24:14.993Z,32.61
2023-01-28T22:26:45.047Z,32.64
2023-01-28T22:29:12.381Z,32.48
2023-01-28T22:31:39.861Z,32.79
2023-01-28T22:34:09.612Z,32.83
2023-01-28T22:36:37.475Z,32.97
2023-01-28T22:39:05.118Z,32.46
2023-01-28T22:44:04.517Z,32.59
2023-01-28T22:51:26.546Z,32.55
2023-01-28T22:53:54.111Z,32.37
2023-01-28T22:56:21.446Z,32.56
2023-01-28T22:58:48.858Z,32.33
2023-01-28T23:01:17.645Z,32.60
2023-01-28T23:03:45.566Z,32.45
2023-01-28T23:06:13.127Z,32.28
2023-01-28T23:08:40.634Z,32.43
2023-01-28T23:11:15.487Z,32.29
2023-01-28T23:14:01.284Z,32.43
2023-01-28T23:16:47.316Z,32.42
2023-01-28T23:19:33.025Z,32.41
2023-01-28T23:22:19.141Z,32.45
2023-01-28T23:24:46.461Z,32.22
2023-01-28T23:27:13.755Z,32.08
2023-01-28T23:29:41.845Z,32.26
2023-01-28T23:32:10.017Z,32.37
2023-01-28T23:34:37.396Z,32.10
2023-01-28T23:37:04.921Z,32.24
2023-01-28T23:39:32.216Z,32.33
2023-01-28T23:41:59.545Z,32.26
2023-01-28T23:44:26.907Z,32.37
2023-01-28T23:46:54.364Z,32.52
2023-01-28T23:49:21.802Z,32.35
2023-01-28T23:51:49.803Z,32.54
2023-01-28T23:54:17.633Z,32.09
2023-01-28T23:59:12.309Z,32.01
